createdAt,value
2017-08-26T00:01:08.913Z,13.80
2017-08-26T00:03:36.356Z,13.30
2017-08-26T00:06:03.800Z,13.37
2017-08-26T00:08:31.242Z,15.23
2017-08-26T00:10:58.673Z,15.73
2017-08-26T00:13:26.112Z,14.60
2017-08-26T00:15:53.595Z,13.30
2017-08-26T00:18:21.024Z,15.47
2017-08-26T00:20:48.464Z,16.50
2017-08-26T00:23:15.916Z,16.20
2017-08-26T00:25:43.364Z,16.90
2017-08-26T00:28:10.812Z,15.77
2017-08-26T00:30:38.248Z,14.50
2017-08-26T00:33:05.683Z,14.90
2017-08-26T00:35:33.115Z,15.03
2017-08-26T00:38:00.574Z,13.47
2017-08-26T00:40:28.015Z,13.90
2017-08-26T00:42:55.461Z,13.13
2017-08-26T00:45:22.905Z,15.17
2017-08-26T00:47:50.345Z,13.40
2017-08-26T00:50:17.780Z,13.53
2017-08-26T00:52:45.225Z,13.90
2017-08-26T00:55:12.664Z,14.60
2017-08-26T00:57:40.096Z,13.73
2017-08-26T01:00:07.547Z,13.83
2017-08-26T01:02:34.979Z,13.80
2017-08-26T01:05:02.412Z,12.87
2017-08-26T01:07:35.726Z,13.30
2017-08-26T01:10:03.168Z,13.13
2017-08-26T01:12:30.595Z,13.33
2017-08-26T01:14:58.046Z,14.30
2017-08-26T01:17:25.491Z,12.63
2017-08-26T01:19:52.942Z,13.27
2017-08-26T01:22:20.399Z,13.50
2017-08-26T01:24:47.845Z,12.70
2017-08-26T01:27:15.288Z,12.93
2017-08-26T01:29:42.724Z,12.97
2017-08-26T01:32:10.163Z,13.40
2017-08-26T01:34:37.603Z,12.20
2017-08-26T01:37:05.052Z,12.47
2017-08-26T01:39:32.498Z,12.57
2017-08-26T01:41:59.966Z,13.10
2017-08-26T01:44:27.420Z,12.53
2017-08-26T01:46:54.853Z,11.90
2017-08-26T01:49:22.287Z,13.70
2017-08-26T01:51:49.725Z,12.53
2017-08-26T01:54:17.164Z,12.00
2017-08-26T01:56:44.607Z,12.30
2017-08-26T01:59:12.044Z,12.53
2017-08-26T02:01:39.512Z,12.83
2017-08-26T02:04:06.964Z,12.40
2017-08-26T02:06:34.434Z,12.90
2017-08-26T02:09:01.862Z,12.10
2017-08-26T02:11:29.315Z,14.00
2017-08-26T02:13:56.743Z,12.50
2017-08-26T02:16:24.184Z,12.30
2017-08-26T02:18:51.611Z,11.60
2017-08-26T02:21:19.056Z,13.27
2017-08-26T02:23:46.504Z,12.73
2017-08-26T02:26:13.938Z,13.87
2017-08-26T02:28:41.396Z,12.53
2017-08-26T02:31:08.832Z,13.30
2017-08-26T02:33:36.264Z,12.37
2017-08-26T02:36:03.707Z,12.57
2017-08-26T02:38:31.180Z,12.50
2017-08-26T02:40:58.627Z,12.50
2017-08-26T02:43:26.072Z,12.60
2017-08-26T02:45:53.553Z,12.87
2017-08-26T02:48:20.988Z,13.57
2017-08-26T02:50:48.424Z,12.87
2017-08-26T02:53:15.875Z,11.50
2017-08-26T02:55:43.299Z,12.33
2017-08-26T02:58:10.741Z,12.87
2017-08-26T03:00:38.167Z,12.87
2017-08-26T03:03:05.619Z,11.20
2017-08-26T03:05:33.056Z,13.17
2017-08-26T03:08:00.524Z,12.60
2017-08-26T03:10:27.947Z,11.80
2017-08-26T03:12:55.388Z,13.70
2017-08-26T03:15:22.825Z,13.10
2017-08-26T03:17:50.276Z,12.90
2017-08-26T03:20:17.715Z,13.43
2017-08-26T03:22:45.168Z,13.00
2017-08-26T03:25:12.619Z,12.90
2017-08-26T03:27:40.073Z,12.03
2017-08-26T03:30:07.501Z,14.03
2017-08-26T03:32:35.070Z,13.73
2017-08-26T03:35:02.504Z,13.60
2017-08-26T03:37:29.947Z,12.17
2017-08-26T03:39:57.391Z,13.90
2017-08-26T03:42:24.851Z,13.30
2017-08-26T03:44:52.305Z,12.57
2017-08-26T03:47:19.751Z,13.20
2017-08-26T03:49:47.196Z,13.63
2017-08-26T03:52:14.641Z,13.27
2017-08-26T03:54:42.099Z,13.50
2017-08-26T03:57:09.539Z,12.43
2017-08-26T03:59:36.976Z,12.07
2017-08-26T04:02:04.407Z,13.10
2017-08-26T04:04:31.849Z,13.70
2017-08-26T04:06:59.284Z,12.30
2017-08-26T04:09:26.747Z,12.13
2017-08-26T04:11:54.190Z,12.83
2017-08-26T04:14:21.639Z,12.40
2017-08-26T04:16:49.068Z,12.33
2017-08-26T04:19:16.521Z,12.70
2017-08-26T04:21:43.963Z,12.33
2017-08-26T04:24:11.411Z,12.60
2017-08-26T04:26:38.842Z,12.70
2017-08-26T04:29:06.290Z,12.70
2017-08-26T04:31:33.728Z,13.03
2017-08-26T04:34:01.163Z,13.47
2017-08-26T04:36:28.591Z,12.33
2017-08-26T04:38:56.051Z,11.60
2017-08-26T04:41:23.503Z,11.93
2017-08-26T04:43:50.941Z,12.33
2017-08-26T04:46:18.385Z,13.07
2017-08-26T04:48:45.820Z,11.67
2017-08-26T04:51:13.256Z,11.53
2017-08-26T04:53:40.692Z,12.87
2017-08-26T04:56:08.136Z,11.13
2017-08-26T04:58:35.582Z,11.43
2017-08-26T05:01:03.027Z,11.00
2017-08-26T05:03:30.480Z,11.50
2017-08-26T05:05:57.936Z,11.67
2017-08-26T05:08:25.384Z,11.20
2017-08-26T05:10:52.831Z,11.90
2017-08-26T05:13:20.264Z,11.00
2017-08-26T05:15:47.720Z,12.57
2017-08-26T05:18:15.164Z,12.50
2017-08-26T05:20:42.636Z,10.97
2017-08-26T05:23:10.067Z,12.00
2017-08-26T05:25:37.523Z,10.90
2017-08-26T05:28:04.979Z,10.60
2017-08-26T05:30:32.431Z,11.47
2017-08-26T05:32:59.872Z,10.70
2017-08-26T05:35:27.324Z,11.23
2017-08-26T05:37:54.770Z,10.10
2017-08-26T05:40:22.203Z,10.87
2017-08-26T05:42:49.640Z,11.13
2017-08-26T05:45:17.073Z,9.20
2017-08-26T05:47:44.532Z,10.13
2017-08-26T05:50:11.988Z,8.90
2017-08-26T05:52:39.443Z,10.40
2017-08-26T05:55:06.884Z,9.10
2017-08-26T05:57:34.329Z,9.67
2017-08-26T06:00:01.750Z,8.80
2017-08-26T06:02:29.184Z,9.10
2017-08-26T06:04:56.623Z,10.20
2017-08-26T06:07:24.114Z,9.20
2017-08-26T06:09:51.536Z,8.27
2017-08-26T06:12:18.991Z,9.70
2017-08-26T06:14:46.425Z,8.90
2017-08-26T06:17:13.874Z,8.83
2017-08-26T06:19:41.312Z,7.90
2017-08-26T06:22:08.748Z,8.70
2017-08-26T06:24:36.175Z,7.90
2017-08-26T06:27:03.616Z,7.87
2017-08-26T06:29:31.056Z,8.30
2017-08-26T06:31:58.548Z,9.10
2017-08-26T06:34:25.969Z,8.70
2017-08-26T06:36:53.407Z,7.77
2017-08-26T06:39:20.839Z,7.10
2017-08-26T06:41:48.267Z,6.80
2017-08-26T06:44:15.704Z,7.13
2017-08-26T06:46:43.147Z,6.97
2017-08-26T06:49:10.586Z,8.10
2017-08-26T06:51:38.019Z,6.30
2017-08-26T06:54:05.451Z,6.80
2017-08-26T06:56:33.012Z,6.83
2017-08-26T06:59:00.451Z,7.70
2017-08-26T07:01:27.887Z,6.77
2017-08-26T07:03:55.317Z,6.50
2017-08-26T07:06:22.740Z,9.07
2017-08-26T07:08:50.196Z,9.07
2017-08-26T07:11:17.631Z,7.13
2017-08-26T07:13:45.092Z,6.90
2017-08-26T07:16:12.534Z,6.23
2017-08-26T07:18:39.965Z,7.60
2017-08-26T07:21:07.415Z,7.63
2017-08-26T07:23:34.847Z,8.40
2017-08-26T07:26:02.275Z,6.70
2017-08-26T07:28:29.718Z,6.20
2017-08-26T07:30:57.168Z,6.60
2017-08-26T07:33:24.662Z,6.47
2017-08-26T07:35:52.087Z,5.63
2017-08-26T07:38:19.544Z,6.70
2017-08-26T07:40:46.960Z,6.53
2017-08-26T07:43:14.396Z,6.27
2017-08-26T07:45:41.840Z,6.27
2017-08-26T07:48:09.275Z,6.40
2017-08-26T07:50:36.726Z,6.70
2017-08-26T07:53:04.144Z,7.20
2017-08-26T07:55:31.576Z,6.43
2017-08-26T07:57:59.556Z,7.80
2017-08-26T08:00:26.996Z,6.90
2017-08-26T08:02:54.433Z,6.97
2017-08-26T08:05:21.886Z,6.70
2017-08-26T08:07:49.330Z,7.27
2017-08-26T08:10:16.759Z,6.30
2017-08-26T08:12:44.188Z,6.90
2017-08-26T08:15:11.628Z,8.20
2017-08-26T08:17:39.060Z,6.43
2017-08-26T08:20:06.507Z,7.00
2017-08-26T08:22:33.932Z,7.23
2017-08-26T08:25:01.367Z,6.77
2017-08-26T08:27:29.067Z,7.57
2017-08-26T08:29:56.559Z,6.70
2017-08-26T08:32:23.998Z,6.93
2017-08-26T08:34:51.445Z,7.90
2017-08-26T08:37:18.863Z,6.73
2017-08-26T08:39:46.298Z,7.47
2017-08-26T08:42:13.739Z,6.70
2017-08-26T08:44:41.185Z,7.97
2017-08-26T08:47:08.607Z,6.70
2017-08-26T08:49:36.042Z,7.37
2017-08-26T08:52:03.477Z,7.00
2017-08-26T08:54:30.916Z,6.50
2017-08-26T08:56:58.357Z,8.07
2017-08-26T08:59:25.780Z,6.63
2017-08-26T09:01:53.207Z,6.20
2017-08-26T09:04:20.635Z,6.70
2017-08-26T09:06:48.082Z,7.07
2017-08-26T09:09:15.511Z,6.73
2017-08-26T09:11:43.916Z,7.10
2017-08-26T09:14:11.391Z,6.80
2017-08-26T09:16:38.813Z,7.00
2017-08-26T09:19:06.236Z,7.40
2017-08-26T09:21:33.675Z,7.60
2017-08-26T09:24:01.104Z,7.13
2017-08-26T09:26:28.572Z,7.70
2017-08-26T09:28:55.980Z,7.20
2017-08-26T09:31:24.106Z,11.87
2017-08-26T09:33:51.547Z,8.40
2017-08-26T09:36:19.005Z,7.30
2017-08-26T09:38:46.422Z,6.60
2017-08-26T09:41:13.864Z,6.77
2017-08-26T09:43:41.295Z,6.43
2017-08-26T09:46:08.745Z,6.47
2017-08-26T09:48:36.180Z,6.10
2017-08-26T09:51:03.601Z,5.83
2017-08-26T09:53:31.065Z,6.23
2017-08-26T09:55:59.320Z,10.77
2017-08-26T09:58:26.751Z,6.03
2017-08-26T10:00:54.190Z,5.70
2017-08-26T10:03:21.640Z,5.37
2017-08-26T10:05:49.076Z,5.70
2017-08-26T10:08:16.520Z,5.50
2017-08-26T10:10:43.955Z,5.40
2017-08-26T10:13:11.396Z,5.27
2017-08-26T10:15:38.823Z,5.20
2017-08-26T10:18:06.299Z,7.50
2017-08-26T10:20:34.560Z,6.50
2017-08-26T10:23:02.019Z,7.60
2017-08-26T10:25:29.503Z,5.57
2017-08-26T10:27:56.957Z,5.07
2017-08-26T10:30:24.384Z,4.93
2017-08-26T10:32:51.833Z,5.00
2017-08-26T10:35:19.260Z,5.40
2017-08-26T10:37:46.695Z,6.07
2017-08-26T10:40:14.138Z,5.27
2017-08-26T10:42:41.676Z,6.03
2017-08-26T10:45:09.092Z,6.20
2017-08-26T10:47:36.526Z,5.93
2017-08-26T10:50:03.963Z,5.33
2017-08-26T10:52:31.392Z,4.83
2017-08-26T10:54:58.897Z,6.73
2017-08-26T10:57:26.320Z,5.23
2017-08-26T10:59:53.776Z,5.47
2017-08-26T11:02:21.214Z,5.60
2017-08-26T11:04:48.656Z,5.77
2017-08-26T11:07:16.084Z,5.40
2017-08-26T11:09:43.511Z,5.33
2017-08-26T11:12:11.191Z,5.47
2017-08-26T11:14:38.636Z,5.13
2017-08-26T11:17:06.080Z,5.33
2017-08-26T11:19:33.514Z,6.00
2017-08-26T11:22:00.970Z,5.80
2017-08-26T11:24:28.407Z,4.90
2017-08-26T11:26:55.847Z,5.20
2017-08-26T11:29:23.288Z,6.13
2017-08-26T11:31:50.728Z,5.50
2017-08-26T11:34:18.172Z,5.70
2017-08-26T11:36:45.607Z,5.77
2017-08-26T11:39:13.035Z,5.70
2017-08-26T11:41:40.458Z,5.60
2017-08-26T11:44:07.911Z,5.57
2017-08-26T11:46:35.343Z,6.03
2017-08-26T11:49:02.771Z,5.90
2017-08-26T11:51:30.400Z,6.30
2017-08-26T11:53:57.835Z,5.63
2017-08-26T11:56:25.305Z,6.93
2017-08-26T11:58:52.739Z,6.73
2017-08-26T12:01:20.229Z,5.60
2017-08-26T12:03:47.663Z,6.20
2017-08-26T12:06:15.096Z,5.73
2017-08-26T12:08:42.532Z,7.13
2017-08-26T12:11:09.963Z,6.00
2017-08-26T12:13:37.423Z,6.50
2017-08-26T12:16:04.864Z,6.00
2017-08-26T12:18:32.287Z,5.80
2017-08-26T12:20:59.732Z,6.63
2017-08-26T12:23:27.169Z,5.50
2017-08-26T12:25:54.640Z,5.70
2017-08-26T12:28:22.064Z,6.43
2017-08-26T12:30:49.500Z,6.17
2017-08-26T12:33:16.941Z,6.37
2017-08-26T12:35:44.446Z,6.50
2017-08-26T12:38:11.872Z,5.97
2017-08-26T12:40:39.312Z,5.80
2017-08-26T12:43:06.744Z,6.10
2017-08-26T12:45:34.200Z,6.10
2017-08-26T12:48:01.681Z,6.33
2017-08-26T12:50:29.115Z,7.20
2017-08-26T12:52:56.588Z,6.30
2017-08-26T12:55:24.092Z,5.90
2017-08-26T12:57:51.528Z,7.97
2017-08-26T13:00:18.968Z,15.40
2017-08-26T13:02:46.432Z,19.47
2017-08-26T13:05:13.868Z,7.87
2017-08-26T13:07:41.324Z,15.43
2017-08-26T13:10:08.776Z,9.27
2017-08-26T13:12:36.223Z,9.33
2017-08-26T13:15:03.651Z,14.70
2017-08-26T13:17:31.111Z,5.83
2017-08-26T13:19:58.544Z,9.50
2017-08-26T13:22:25.979Z,8.77
2017-08-26T13:24:53.407Z,6.77
2017-08-26T13:27:20.859Z,10.90
2017-08-26T13:29:48.275Z,6.17
2017-08-26T13:32:15.722Z,5.97
2017-08-26T13:34:43.188Z,6.10
2017-08-26T13:37:10.645Z,7.30
2017-08-26T13:39:38.179Z,6.07
2017-08-26T13:42:05.721Z,6.57
2017-08-26T13:44:33.164Z,6.87
2017-08-26T13:47:00.687Z,6.67
2017-08-26T13:49:28.235Z,6.23
2017-08-26T13:51:55.660Z,8.03
2017-08-26T13:54:23.108Z,42.33
2017-08-26T13:56:50.548Z,12.60
2017-08-26T13:59:18.002Z,9.80
2017-08-26T14:01:45.429Z,9.77
2017-08-26T14:04:12.864Z,8.90
2017-08-26T14:06:40.288Z,8.40
2017-08-26T14:09:08.544Z,11.50
2017-08-26T14:11:35.960Z,11.90
2017-08-26T14:14:03.416Z,10.60
2017-08-26T14:16:30.850Z,9.50
2017-08-26T14:18:58.287Z,7.77
2017-08-26T14:21:25.723Z,8.10
2017-08-26T14:23:53.201Z,6.47
2017-08-26T14:26:20.607Z,7.67
2017-08-26T14:28:48.039Z,7.67
2017-08-26T14:31:15.555Z,13.60
2017-08-26T14:33:43.005Z,6.80
2017-08-26T14:36:10.583Z,7.77
2017-08-26T14:38:38.136Z,13.80
2017-08-26T14:41:05.586Z,7.40
2017-08-26T14:43:33.128Z,8.70
2017-08-26T14:46:00.571Z,7.37
2017-08-26T14:48:28.012Z,8.67
2017-08-26T14:50:55.456Z,7.00
2017-08-26T14:53:22.887Z,7.37
2017-08-26T14:55:50.456Z,6.40
2017-08-26T14:58:17.985Z,7.07
2017-08-26T15:00:45.427Z,6.20
2017-08-26T15:03:12.863Z,5.70
2017-08-26T15:05:40.408Z,6.73
2017-08-26T15:08:07.856Z,6.97
2017-08-26T15:10:35.400Z,6.43
2017-08-26T15:13:02.841Z,7.23
2017-08-26T15:15:30.291Z,6.40
2017-08-26T15:17:57.805Z,6.37
2017-08-26T15:20:25.235Z,6.87
2017-08-26T15:22:52.708Z,6.07
2017-08-26T15:25:20.144Z,6.70
2017-08-26T15:27:47.575Z,5.83
2017-08-26T15:30:15.037Z,5.20
2017-08-26T15:32:42.465Z,7.37
2017-08-26T15:35:09.897Z,5.40
2017-08-26T15:37:37.346Z,6.00
2017-08-26T15:40:04.772Z,8.00
2017-08-26T15:42:32.208Z,6.70
2017-08-26T15:44:59.767Z,6.40
2017-08-26T15:47:27.295Z,5.37
2017-08-26T15:49:54.735Z,5.10
2017-08-26T15:52:22.184Z,5.50
2017-08-26T15:54:49.617Z,5.87
2017-08-26T15:57:17.060Z,5.23
2017-08-26T15:59:44.513Z,5.17
2017-08-26T16:02:11.971Z,5.10
2017-08-26T16:04:39.405Z,5.33
2017-08-26T16:07:06.842Z,4.93
2017-08-26T16:09:34.295Z,4.47
2017-08-26T16:12:01.728Z,5.40
2017-08-26T16:14:29.156Z,4.83
2017-08-26T16:16:56.598Z,5.37
2017-08-26T16:19:24.015Z,4.70
2017-08-26T16:21:51.448Z,8.27
2017-08-26T16:24:18.901Z,6.40
2017-08-26T16:26:46.336Z,6.30
2017-08-26T16:29:13.787Z,5.37
2017-08-26T16:31:41.245Z,5.53
2017-08-26T16:34:08.667Z,5.13
2017-08-26T16:36:36.100Z,5.40
2017-08-26T16:39:03.525Z,5.70
2017-08-26T16:41:30.965Z,5.70
2017-08-26T16:43:58.464Z,5.80
2017-08-26T16:46:25.916Z,11.17
2017-08-26T16:48:53.356Z,14.53
2017-08-26T16:51:20.793Z,6.07
2017-08-26T16:53:48.251Z,16.27
2017-08-26T16:56:15.812Z,18.50
2017-08-26T16:58:43.267Z,10.90
2017-08-26T17:01:10.695Z,7.57
2017-08-26T17:03:38.131Z,10.20
2017-08-26T17:06:05.568Z,19.53
2017-08-26T17:08:33.114Z,11.20
2017-08-26T17:11:00.651Z,10.00
2017-08-26T17:13:28.090Z,7.70
2017-08-26T17:15:55.515Z,12.43
2017-08-26T17:18:23.023Z,8.93
2017-08-26T17:20:50.428Z,6.63
2017-08-26T17:23:17.864Z,6.30
2017-08-26T17:25:45.302Z,6.40
2017-08-26T17:28:12.744Z,6.30
2017-08-26T17:30:40.175Z,6.43
2017-08-26T17:33:07.599Z,6.23
2017-08-26T17:35:35.046Z,6.90
2017-08-26T17:38:02.481Z,7.60
2017-08-26T17:40:30.819Z,8.23
2017-08-26T17:42:58.262Z,8.33
2017-08-26T17:45:25.697Z,7.73
2017-08-26T17:47:53.168Z,7.10
2017-08-26T17:50:20.611Z,8.40
2017-08-26T17:52:48.052Z,8.90
2017-08-26T17:55:15.500Z,7.13
2017-08-26T17:57:42.928Z,8.37
2017-08-26T18:00:10.360Z,6.70
2017-08-26T18:02:37.823Z,7.60
2017-08-26T18:05:05.266Z,7.20
2017-08-26T18:07:32.688Z,6.80
2017-08-26T18:10:00.176Z,6.00
2017-08-26T18:12:27.603Z,9.83
2017-08-26T18:14:55.039Z,7.97
2017-08-26T18:17:22.460Z,7.27
2017-08-26T18:19:50.328Z,7.60
2017-08-26T18:22:17.747Z,6.80
2017-08-26T18:24:45.179Z,7.97
2017-08-26T18:27:12.632Z,7.37
2017-08-26T18:29:40.064Z,7.07
2017-08-26T18:32:07.544Z,7.00
2017-08-26T18:34:35.206Z,7.73
2017-08-26T18:37:02.727Z,7.00
2017-08-26T18:39:30.160Z,7.10
2017-08-26T18:41:57.596Z,7.57
2017-08-26T18:44:25.044Z,8.10
2017-08-26T18:46:52.483Z,8.03
2017-08-26T18:49:19.908Z,7.67
2017-08-26T18:51:47.356Z,10.40
2017-08-26T18:54:14.829Z,11.70
2017-08-26T18:56:42.375Z,10.37
2017-08-26T18:59:09.819Z,8.03
2017-08-26T19:01:37.264Z,7.07
2017-08-26T19:04:04.814Z,7.77
2017-08-26T19:06:32.360Z,6.97
2017-08-26T19:08:59.806Z,6.97
2017-08-26T19:11:27.343Z,8.70
2017-08-26T19:13:54.879Z,7.40
2017-08-26T19:16:22.450Z,8.53
2017-08-26T19:18:49.945Z,8.10
2017-08-26T19:21:17.369Z,8.80
2017-08-26T19:23:44.811Z,9.10
2017-08-26T19:26:12.262Z,9.03
2017-08-26T19:28:39.692Z,10.00
2017-08-26T19:31:07.180Z,9.57
2017-08-26T19:33:34.608Z,8.47
2017-08-26T19:36:02.145Z,9.00
2017-08-26T19:38:29.560Z,9.50
2017-08-26T19:40:57.001Z,8.40
2017-08-26T19:43:24.456Z,8.40
2017-08-26T19:45:51.903Z,8.00
2017-08-26T19:48:19.352Z,8.30
2017-08-26T19:50:46.823Z,9.50
2017-08-26T19:53:14.286Z,7.40
2017-08-26T19:55:41.724Z,7.30
2017-08-26T19:58:09.184Z,8.13
2017-08-26T20:00:36.613Z,8.13
2017-08-26T20:03:04.066Z,8.97
2017-08-26T20:05:31.580Z,9.80
2017-08-26T20:07:59.143Z,9.47
2017-08-26T20:10:26.584Z,9.33
2017-08-26T20:12:54.027Z,7.60
2017-08-26T20:15:21.468Z,8.67
2017-08-26T20:17:49.004Z,8.90
2017-08-26T20:20:16.432Z,9.00
2017-08-26T20:22:43.879Z,11.47
2017-08-26T20:25:11.304Z,9.93
2017-08-26T20:27:38.754Z,9.20
2017-08-26T20:30:06.194Z,9.37
2017-08-26T20:32:33.642Z,9.57
2017-08-26T20:35:01.100Z,9.83
2017-08-26T20:37:28.569Z,10.10
2017-08-26T20:39:56.013Z,9.57
2017-08-26T20:42:23.451Z,11.00
2017-08-26T20:44:50.903Z,9.93
2017-08-26T20:47:18.371Z,9.80
2017-08-26T20:49:45.807Z,9.93
2017-08-26T20:52:13.236Z,9.70
2017-08-26T20:54:40.684Z,10.47
2017-08-26T20:57:08.143Z,8.60
2017-08-26T20:59:35.646Z,9.40
2017-08-26T21:02:03.076Z,40.87
2017-08-26T21:04:30.516Z,67.43
2017-08-26T21:06:57.971Z,18.67
2017-08-26T21:09:25.432Z,9.87
2017-08-26T21:11:52.916Z,9.10
2017-08-26T21:14:20.416Z,10.70
2017-08-26T21:16:47.861Z,8.80
2017-08-26T21:19:15.289Z,8.10
2017-08-26T21:21:42.728Z,8.10
2017-08-26T21:24:10.174Z,8.67
2017-08-26T21:26:37.612Z,8.10
2017-08-26T21:29:05.061Z,8.50
2017-08-26T21:31:32.504Z,7.90
2017-08-26T21:33:59.978Z,8.17
2017-08-26T21:36:27.416Z,7.63
2017-08-26T21:38:54.850Z,9.20
2017-08-26T21:41:22.332Z,9.67
2017-08-26T21:43:49.795Z,10.40
2017-08-26T21:46:17.246Z,12.80
2017-08-26T21:48:44.679Z,13.23
2017-08-26T21:51:12.115Z,12.77
2017-08-26T21:53:39.548Z,11.07
2017-08-26T21:56:06.991Z,11.20
2017-08-26T21:58:34.428Z,10.50
2017-08-26T22:01:01.899Z,9.90
2017-08-26T22:03:29.344Z,9.33
2017-08-26T22:05:56.782Z,9.60
2017-08-26T22:08:24.207Z,8.40
2017-08-26T22:10:51.644Z,9.20
2017-08-26T22:13:19.078Z,9.33
2017-08-26T22:15:46.543Z,9.60
2017-08-26T22:18:13.987Z,9.53
2017-08-26T22:20:41.434Z,8.17
2017-08-26T22:23:08.856Z,9.10
2017-08-26T22:25:36.307Z,8.67
2017-08-26T22:28:03.725Z,9.90
2017-08-26T22:30:31.179Z,9.90
2017-08-26T22:32:58.616Z,9.90
2017-08-26T22:35:26.070Z,10.47
2017-08-26T22:37:53.496Z,9.70
2017-08-26T22:40:20.940Z,10.10
2017-08-26T22:42:48.360Z,9.83
2017-08-26T22:45:15.815Z,22.50
2017-08-26T22:47:43.254Z,20.93
2017-08-26T22:50:10.696Z,23.77
2017-08-26T22:52:39.112Z,9.40
2017-08-26T22:55:06.547Z,10.60
2017-08-26T22:57:34.003Z,10.20
2017-08-26T23:00:01.436Z,10.40
2017-08-26T23:02:28.885Z,9.77
2017-08-26T23:04:56.312Z,9.70
2017-08-26T23:07:23.751Z,9.00
2017-08-26T23:09:51.185Z,10.40
2017-08-26T23:12:18.720Z,11.27
2017-08-26T23:14:46.200Z,10.43
2017-08-26T23:17:13.666Z,10.90
2017-08-26T23:19:41.147Z,9.30
2017-08-26T23:22:08.624Z,10.50
2017-08-26T23:24:36.063Z,10.00
2017-08-26T23:27:03.523Z,9.33
2017-08-26T23:29:30.954Z,9.87
2017-08-26T23:31:58.412Z,10.33
2017-08-26T23:34:25.855Z,10.50
2017-08-26T23:36:53.371Z,8.97
2017-08-26T23:39:20.820Z,9.87
2017-08-26T23:41:48.268Z,9.70
2017-08-26T23:44:15.708Z,9.70
2017-08-26T23:46:43.147Z,9.77
2017-08-26T23:49:10.597Z,9.80
2017-08-26T23:51:38.049Z,9.67
2017-08-26T23:54:05.579Z,8.53
2017-08-26T23:56:33.018Z,10.07
2017-08-26T23:59:00.465Z,10.10
